Time;durP1;ratioP1;P1;durP2;ratioP2;P2;SDS_P1;SDS_P2;PMS_P1;PMS_P2;Temp;Humidity;BMP_temperature;BMP_pressure;BME280_temperature;BME280_humidity;BME280_pressure;Samples;Min_cycle;Max_cycle;Signal;HPM_P1;HPM_P2
2022/11/13 00:00:49;;;;;;;93.50;55.30;;;;;;;;;;4992614;28;20184;-77
2022/11/13 00:03:15;;;;;;;95.20;56.73;;;;;;;;;;4992864;28;20656;-76
2022/11/13 00:05:41;;;;;;;106.47;58.87;;;;;;;;;;4992079;28;20187;-77
2022/11/13 00:08:07;;;;;;;94.67;56.90;;;;;;;;;;4992161;28;20184;-75
2022/11/13 00:10:33;;;;;;;91.87;53.80;;;;;;;;;;4990381;28;20531;-76
2022/11/13 00:12:59;;;;;;;94.70;55.83;;;;;;;;;;4978630;28;20211;-77
2022/11/13 00:15:25;;;;;;;88.10;54.50;;;;;;;;;;4976101;28;20530;-76
2022/11/13 00:17:51;;;;;;;108.20;57.47;;;;;;;;;;4991574;28;20333;-76
2022/11/13 00:20:18;;;;;;;86.17;52.70;;;;;;;;;;4987747;28;20644;-76
2022/11/13 00:22:44;;;;;;;121.73;60.00;;;;;;;;;;4984960;28;20232;-76
2022/11/13 00:25:10;;;;;;;83.83;53.30;;;;;;;;;;4975314;28;20188;-76
2022/11/13 00:27:36;;;;;;;93.13;56.47;;;;;;;;;;4991729;28;20171;-77
2022/11/13 00:30:02;;;;;;;98.37;55.17;;;;;;;;;;4991452;28;20652;-76
2022/11/13 00:32:28;;;;;;;86.20;53.80;;;;;;;;;;4991710;28;20252;-76
2022/11/13 00:34:54;;;;;;;99.60;55.30;;;;;;;;;;5006930;28;20223;-75
2022/11/13 00:37:20;;;;;;;86.00;53.50;;;;;;;;;;4992235;28;20263;-76
2022/11/13 00:39:46;;;;;;;103.87;55.60;;;;;;;;;;4990930;28;20322;-76
2022/11/13 00:42:12;;;;;;;101.17;54.73;;;;;;;;;;4992686;28;20172;-77
2022/11/13 00:44:38;;;;;;;86.57;52.17;;;;;;;;;;4991242;28;20237;-78
2022/11/13 00:47:05;;;;;;;98.60;53.70;;;;;;;;;;5006120;28;20593;-77
2022/11/13 00:49:31;;;;;;;102.03;54.57;;;;;;;;;;5004262;28;20223;-77
2022/11/13 00:51:59;;;;;;;106.03;55.63;;;;;;;;;;5005848;28;20198;-77
2022/11/13 00:54:25;;;;;;;94.83;53.43;;;;;;;;;;4991914;28;20176;-78
2022/11/13 00:56:51;;;;;;;106.40;57.17;;;;;;;;;;4991583;28;20163;-77
2022/11/13 00:59:17;;;;;;;106.73;55.03;;;;;;;;;;5006716;28;20186;-77
2022/11/13 01:01:43;;;;;;;124.67;56.73;;;;;;;;;;5003672;28;20195;-77
2022/11/13 01:04:09;;;;;;;106.37;55.63;;;;;;;;;;4978448;28;20256;-76
2022/11/13 01:06:35;;;;;;;107.80;56.40;;;;;;;;;;4994789;28;20218;-76
2022/11/13 01:09:01;;;;;;;113.57;57.77;;;;;;;;;;4989255;28;20180;-78
2022/11/13 01:11:28;;;;;;;101.70;55.80;;;;;;;;;;4983223;28;20192;-77
2022/11/13 01:13:55;;;;;;;110.67;56.33;;;;;;;;;;4983802;28;20270;-77
2022/11/13 01:16:22;;;;;;;125.60;58.30;;;;;;;;;;5003152;28;20188;-78
2022/11/13 01:18:49;;;;;;;96.93;52.43;;;;;;;;;;4989672;28;20191;-77
2022/11/13 01:21:17;;;;;;;108.47;55.50;;;;;;;;;;4992268;28;20307;-77
2022/11/13 01:23:43;;;;;;;136.50;59.13;;;;;;;;;;4990892;28;20187;-76
2022/11/13 01:26:20;;;;;;;116.43;59.13;;;;;;;;;;4990912;28;20186;-75
2022/11/13 01:28:46;;;;;;;106.87;57.23;;;;;;;;;;4989492;28;20185;-77
2022/11/13 01:31:23;;;;;;;102.40;55.77;;;;;;;;;;4987993;28;20659;-76
2022/11/13 01:33:49;;;;;;;100.80;54.97;;;;;;;;;;4975822;28;20289;-76
2022/11/13 01:36:22;;;;;;;110.93;56.23;;;;;;;;;;4977857;28;20267;-78
2022/11/13 01:38:49;;;;;;;103.43;55.70;;;;;;;;;;4975901;28;20191;-76
2022/11/13 01:41:17;;;;;;;114.20;55.40;;;;;;;;;;4985578;28;20226;-77
2022/11/13 01:43:43;;;;;;;124.40;59.23;;;;;;;;;;4991139;28;20636;-78
2022/11/13 01:46:18;;;;;;;106.57;54.67;;;;;;;;;;4990871;28;20195;-77
2022/11/13 01:48:47;;;;;;;104.53;55.80;;;;;;;;;;4989213;28;20198;-77
2022/11/13 01:51:22;;;;;;;96.60;54.10;;;;;;;;;;4976856;28;20188;-76
2022/11/13 01:53:48;;;;;;;101.47;53.90;;;;;;;;;;4976311;28;20203;-77
2022/11/13 01:56:15;;;;;;;123.33;58.60;;;;;;;;;;4999786;28;20570;-76
2022/11/13 01:58:43;;;;;;;102.07;54.90;;;;;;;;;;5003861;28;20212;-77
2022/11/13 02:01:09;;;;;;;118.63;56.60;;;;;;;;;;5006009;28;20179;-76
2022/11/13 02:03:35;;;;;;;109.13;56.67;;;;;;;;;;4991136;28;20524;-76
2022/11/13 02:06:02;;;;;;;120.87;58.03;;;;;;;;;;4989898;28;20184;-77
2022/11/13 02:08:28;;;;;;;118.87;57.33;;;;;;;;;;4988565;28;20242;-77
2022/11/13 02:10:54;;;;;;;116.27;57.30;;;;;;;;;;4986298;28;20278;-78
2022/11/13 02:13:20;;;;;;;124.00;59.20;;;;;;;;;;4982318;28;20298;-77
2022/11/13 02:15:47;;;;;;;115.03;54.50;;;;;;;;;;4994721;28;20219;-78
2022/11/13 02:18:14;;;;;;;123.13;57.47;;;;;;;;;;4992375;28;20226;-76
2022/11/13 02:20:46;;;;;;;131.07;58.10;;;;;;;;;;4994317;28;20951;-77
2022/11/13 02:23:48;;;;;;;112.17;56.70;;;;;;;;;;5005273;28;20530;-77
2022/11/13 02:26:15;;;;;;;113.40;56.50;;;;;;;;;;4975628;28;20800;-77
2022/11/13 02:28:41;;;;;;;141.67;60.77;;;;;;;;;;4992006;28;20669;-78
2022/11/13 02:31:10;;;;;;;99.80;51.50;;;;;;;;;;4992065;28;20187;-76
2022/11/13 02:33:36;;;;;;;100.53;52.53;;;;;;;;;;4992478;28;20431;-77
2022/11/13 02:36:03;;;;;;;101.13;54.10;;;;;;;;;;4993137;28;20278;-77
2022/11/13 02:38:29;;;;;;;99.90;52.50;;;;;;;;;;4988287;28;20215;-77
2022/11/13 02:40:55;;;;;;;105.40;54.13;;;;;;;;;;4983936;28;20188;-78
2022/11/13 02:43:21;;;;;;;89.80;51.60;;;;;;;;;;4991659;28;20191;-76
2022/11/13 02:45:47;;;;;;;94.13;50.53;;;;;;;;;;4991609;28;20176;-77
2022/11/13 02:48:13;;;;;;;105.43;56.40;;;;;;;;;;4988144;28;20193;-76
2022/11/13 02:50:40;;;;;;;92.83;52.50;;;;;;;;;;4973330;28;20687;-76
2022/11/13 02:53:06;;;;;;;97.47;52.27;;;;;;;;;;4990172;28;20336;-77
2022/11/13 02:55:32;;;;;;;105.67;52.53;;;;;;;;;;4992403;28;20181;-77
2022/11/13 02:57:58;;;;;;;106.13;55.23;;;;;;;;;;4992077;28;20257;-76
2022/11/13 03:00:24;;;;;;;109.47;54.53;;;;;;;;;;4993661;28;20238;-77
2022/11/13 03:02:50;;;;;;;118.70;56.10;;;;;;;;;;4980663;28;20619;-78
2022/11/13 03:05:16;;;;;;;94.87;51.00;;;;;;;;;;4982962;28;20189;-77
2022/11/13 03:07:42;;;;;;;139.90;59.03;;;;;;;;;;4975910;28;20181;-77
2022/11/13 03:10:09;;;;;;;99.33;53.17;;;;;;;;;;5007670;28;20235;-76
2022/11/13 03:12:36;;;;;;;90.70;51.37;;;;;;;;;;4993263;28;20290;-77
2022/11/13 03:15:02;;;;;;;97.23;50.73;;;;;;;;;;4990569;28;20896;-76
2022/11/13 03:17:30;;;;;;;104.40;51.27;;;;;;;;;;4989522;28;20243;-77
2022/11/13 03:19:56;;;;;;;105.03;51.63;;;;;;;;;;4993267;28;20184;-76
2022/11/13 03:22:22;;;;;;;90.17;49.67;;;;;;;;;;4993277;28;20281;-77
2022/11/13 03:24:48;;;;;;;85.03;48.07;;;;;;;;;;4998650;28;20207;-77
2022/11/13 03:27:14;;;;;;;103.80;50.33;;;;;;;;;;5009691;28;20191;-76
2022/11/13 03:29:40;;;;;;;105.33;50.33;;;;;;;;;;5011281;28;20260;-76
2022/11/13 03:32:06;;;;;;;90.03;49.53;;;;;;;;;;5024411;28;20177;-76
2022/11/13 03:34:32;;;;;;;102.13;49.70;;;;;;;;;;4995673;28;20187;-76
2022/11/13 03:36:58;;;;;;;86.13;45.63;;;;;;;;;;5010628;28;20159;-76
2022/11/13 03:39:24;;;;;;;88.50;43.97;;;;;;;;;;5012298;28;20195;-77
2022/11/13 03:41:50;;;;;;;87.67;45.63;;;;;;;;;;5002602;28;20191;-75
2022/11/13 03:44:16;;;;;;;97.67;46.43;;;;;;;;;;4996500;28;20192;-76
2022/11/13 03:46:42;;;;;;;110.30;49.53;;;;;;;;;;5006379;28;20215;-77
2022/11/13 03:49:08;;;;;;;79.53;42.80;;;;;;;;;;5027946;28;20164;-77
2022/11/13 03:51:34;;;;;;;84.73;43.93;;;;;;;;;;5011668;28;20194;-76
2022/11/13 03:54:00;;;;;;;89.07;44.70;;;;;;;;;;4997744;28;20212;-75
2022/11/13 03:56:27;;;;;;;89.43;46.13;;;;;;;;;;4998477;28;20218;-75
2022/11/13 03:58:52;;;;;;;94.30;46.43;;;;;;;;;;5016056;28;20194;-77
2022/11/13 04:01:18;;;;;;;97.20;48.13;;;;;;;;;;4981250;28;20184;-76
2022/11/13 04:03:45;;;;;;;119.30;49.97;;;;;;;;;;4978700;28;20546;-76
2022/11/13 04:06:11;;;;;;;116.90;51.93;;;;;;;;;;4992432;28;20368;-78
2022/11/13 04:08:36;;;;;;;114.33;51.40;;;;;;;;;;4992191;28;20641;-76
2022/11/13 04:11:10;;;;;;;105.27;47.93;;;;;;;;;;4992190;28;20183;-76
2022/11/13 04:13:36;;;;;;;93.60;46.73;;;;;;;;;;4978649;28;20716;-76
2022/11/13 04:16:02;;;;;;;96.07;49.13;;;;;;;;;;4993329;28;20243;-77
2022/11/13 04:18:28;;;;;;;105.90;47.80;;;;;;;;;;4993070;28;20619;-77
2022/11/13 04:21:00;;;;;;;125.70;51.20;;;;;;;;;;4989824;28;20251;-78
2022/11/13 04:23:26;;;;;;;112.07;51.43;;;;;;;;;;4992281;28;20210;-76
2022/11/13 04:25:52;;;;;;;97.27;47.90;;;;;;;;;;4991285;28;20909;-77
2022/11/13 04:28:20;;;;;;;114.60;47.87;;;;;;;;;;5007966;28;20279;-76
2022/11/13 04:30:46;;;;;;;114.10;50.40;;;;;;;;;;4993430;28;20176;-75
2022/11/13 04:33:12;;;;;;;95.93;45.00;;;;;;;;;;4989477;28;20565;-76
2022/11/13 04:35:40;;;;;;;103.50;46.50;;;;;;;;;;4991585;28;20188;-76
2022/11/13 04:38:06;;;;;;;116.27;47.73;;;;;;;;;;4992249;28;20184;-77
2022/11/13 04:40:32;;;;;;;105.30;47.83;;;;;;;;;;4992599;28;20232;-76
2022/11/13 04:42:58;;;;;;;94.83;43.17;;;;;;;;;;4991684;28;20230;-77
2022/11/13 04:45:28;;;;;;;89.40;44.60;;;;;;;;;;4997677;28;20436;-77
2022/11/13 04:47:54;;;;;;;108.73;46.23;;;;;;;;;;5011782;28;20205;-76
2022/11/13 04:50:20;;;;;;;131.30;48.07;;;;;;;;;;4984180;28;20196;-75
2022/11/13 04:52:46;;;;;;;111.00;48.00;;;;;;;;;;4984614;28;20241;-76
2022/11/13 04:55:12;;;;;;;113.20;45.97;;;;;;;;;;4976945;28;20263;-77
2022/11/13 04:57:38;;;;;;;113.53;46.80;;;;;;;;;;4992150;28;20258;-78
2022/11/13 05:00:06;;;;;;;96.03;45.97;;;;;;;;;;4998034;28;20188;-77
2022/11/13 05:02:32;;;;;;;114.83;47.60;;;;;;;;;;4977585;28;20192;-77
2022/11/13 05:04:58;;;;;;;113.27;47.53;;;;;;;;;;4995053;28;21082;-76
2022/11/13 05:07:28;;;;;;;112.27;48.73;;;;;;;;;;5007528;28;20656;-76
2022/11/13 05:09:54;;;;;;;109.43;46.80;;;;;;;;;;5007304;28;20207;-77
2022/11/13 05:12:20;;;;;;;107.63;48.70;;;;;;;;;;4991624;28;20172;-77
2022/11/13 05:14:46;;;;;;;109.13;50.47;;;;;;;;;;5006212;28;20198;-77
2022/11/13 05:17:13;;;;;;;161.93;54.77;;;;;;;;;;4991266;28;20183;-77
2022/11/13 05:19:39;;;;;;;150.03;52.80;;;;;;;;;;5000061;28;20274;-76
2022/11/13 05:22:05;;;;;;;122.33;50.20;;;;;;;;;;4991647;28;20227;-78
2022/11/13 05:24:31;;;;;;;116.23;49.17;;;;;;;;;;4991025;28;20680;-77
2022/11/13 05:26:57;;;;;;;138.37;50.43;;;;;;;;;;4988339;28;20371;-76
2022/11/13 05:29:23;;;;;;;101.90;46.97;;;;;;;;;;5006483;28;20640;-76
2022/11/13 05:31:49;;;;;;;110.70;48.87;;;;;;;;;;4986999;28;20180;-77
2022/11/13 05:34:15;;;;;;;123.70;49.40;;;;;;;;;;4989858;28;20676;-76
2022/11/13 05:36:42;;;;;;;128.27;50.00;;;;;;;;;;4990790;28;20171;-77
2022/11/13 05:39:08;;;;;;;126.43;50.90;;;;;;;;;;4986634;28;20188;-77
2022/11/13 05:41:34;;;;;;;108.80;48.67;;;;;;;;;;4986854;28;20241;-77
2022/11/13 05:44:00;;;;;;;98.37;46.63;;;;;;;;;;4990297;28;20203;-78
2022/11/13 05:46:27;;;;;;;128.90;50.83;;;;;;;;;;4981631;28;20199;-76
2022/11/13 05:48:55;;;;;;;128.97;50.20;;;;;;;;;;4990478;28;20175;-76
2022/11/13 05:51:22;;;;;;;118.67;49.87;;;;;;;;;;4979804;28;20199;-76
2022/11/13 05:53:48;;;;;;;119.80;49.43;;;;;;;;;;4979416;28;20251;-77
2022/11/13 05:56:16;;;;;;;97.03;46.03;;;;;;;;;;4997057;28;20217;-77
2022/11/13 05:58:43;;;;;;;123.00;49.73;;;;;;;;;;5006186;28;20664;-77
2022/11/13 06:01:23;;;;;;;126.83;50.87;;;;;;;;;;4989515;28;20226;-78
2022/11/13 06:03:49;;;;;;;114.87;48.23;;;;;;;;;;4986627;28;20215;-77
2022/11/13 06:06:16;;;;;;;115.10;49.70;;;;;;;;;;4990669;28;20179;-77
2022/11/13 06:08:43;;;;;;;119.97;50.27;;;;;;;;;;5005808;28;20190;-77
2022/11/13 06:11:10;;;;;;;129.87;50.93;;;;;;;;;;4990936;28;20179;-76
2022/11/13 06:13:36;;;;;;;84.53;44.30;;;;;;;;;;5004155;28;20215;-76
2022/11/13 06:16:04;;;;;;;111.67;45.50;;;;;;;;;;4974999;28;20176;-77
2022/11/13 06:18:30;;;;;;;86.67;41.23;;;;;;;;;;4988093;28;20664;-77
2022/11/13 06:20:59;;;;;;;68.80;35.57;;;;;;;;;;4983072;28;20689;-77
2022/11/13 06:23:25;;;;;;;87.50;39.17;;;;;;;;;;4977259;28;20650;-75
2022/11/13 06:25:51;;;;;;;59.17;33.97;;;;;;;;;;4978628;28;20184;-76
2022/11/13 06:28:17;;;;;;;77.83;36.47;;;;;;;;;;4990681;28;20234;-77
2022/11/13 06:30:43;;;;;;;63.63;33.93;;;;;;;;;;4990111;28;20525;-76
2022/11/13 06:33:09;;;;;;;77.47;36.00;;;;;;;;;;4990284;28;20294;-76
2022/11/13 06:35:35;;;;;;;86.07;38.70;;;;;;;;;;4990012;28;20266;-77
2022/11/13 06:38:01;;;;;;;63.13;34.60;;;;;;;;;;4990456;28;20175;-76
2022/11/13 06:40:27;;;;;;;64.83;34.50;;;;;;;;;;4978861;28;20195;-78
2022/11/13 06:42:53;;;;;;;67.23;36.17;;;;;;;;;;4989999;28;20271;-77
2022/11/13 06:45:19;;;;;;;71.53;35.83;;;;;;;;;;4985728;28;20200;-77
2022/11/13 06:47:45;;;;;;;71.47;35.73;;;;;;;;;;4979665;28;20628;-76
2022/11/13 06:50:12;;;;;;;67.07;34.87;;;;;;;;;;4979604;28;20184;-76
2022/11/13 06:52:38;;;;;;;61.53;33.43;;;;;;;;;;4980582;28;20211;-75
2022/11/13 06:55:04;;;;;;;60.47;32.53;;;;;;;;;;4987177;28;20326;-76
2022/11/13 06:57:30;;;;;;;60.47;31.17;;;;;;;;;;4989432;28;20267;-76
2022/11/13 06:59:56;;;;;;;44.73;27.23;;;;;;;;;;4985976;28;20380;-76
2022/11/13 07:02:22;;;;;;;52.20;28.33;;;;;;;;;;4993153;28;20192;-77
2022/11/13 07:04:48;;;;;;;47.70;27.07;;;;;;;;;;5008490;28;20180;-76
2022/11/13 07:07:14;;;;;;;44.20;24.63;;;;;;;;;;4993605;28;20191;-76
2022/11/13 07:09:40;;;;;;;40.50;24.23;;;;;;;;;;4992229;28;20184;-78
2022/11/13 07:12:06;;;;;;;47.60;26.77;;;;;;;;;;4993834;28;20657;-77
2022/11/13 07:14:32;;;;;;;44.63;27.30;;;;;;;;;;4993914;28;20773;-78
2022/11/13 07:16:58;;;;;;;48.67;27.93;;;;;;;;;;4993634;28;20218;-78
2022/11/13 07:19:24;;;;;;;51.70;28.63;;;;;;;;;;4994566;28;20188;-77
2022/11/13 07:21:50;;;;;;;46.27;27.27;;;;;;;;;;4993152;28;20708;-76
2022/11/13 07:24:16;;;;;;;46.07;27.63;;;;;;;;;;4993395;28;20191;-77
2022/11/13 07:26:42;;;;;;;49.03;29.83;;;;;;;;;;5008347;28;20199;-77
2022/11/13 07:29:08;;;;;;;55.00;31.37;;;;;;;;;;4992495;28;20330;-77
2022/11/13 07:31:34;;;;;;;56.33;32.33;;;;;;;;;;5005606;28;20183;-76
2022/11/13 07:34:00;;;;;;;56.63;32.63;;;;;;;;;;4994096;28;20243;-76
2022/11/13 07:36:26;;;;;;;51.10;31.20;;;;;;;;;;5007966;28;20551;-77
2022/11/13 07:38:52;;;;;;;49.73;31.47;;;;;;;;;;5007715;28;20652;-77
2022/11/13 07:41:18;;;;;;;48.03;29.57;;;;;;;;;;5006179;28;20188;-76
2022/11/13 07:43:44;;;;;;;48.07;28.73;;;;;;;;;;4983635;28;20258;-77
2022/11/13 07:46:10;;;;;;;46.77;26.73;;;;;;;;;;4993076;28;20191;-77
2022/11/13 07:48:36;;;;;;;47.50;28.17;;;;;;;;;;4991302;28;20179;-77
2022/11/13 07:51:03;;;;;;;40.97;24.90;;;;;;;;;;4985255;28;20223;-77
2022/11/13 07:53:29;;;;;;;40.07;23.17;;;;;;;;;;4983266;28;20355;-76
2022/11/13 07:55:55;;;;;;;41.40;22.83;;;;;;;;;;4980008;28;20679;-77
2022/11/13 07:58:21;;;;;;;37.17;22.33;;;;;;;;;;4991398;28;20180;-77
2022/11/13 08:00:47;;;;;;;35.53;21.20;;;;;;;;;;4986864;28;20540;-76
2022/11/13 08:03:15;;;;;;;39.77;21.63;;;;;;;;;;4985208;28;20188;-76
2022/11/13 08:05:41;;;;;;;37.43;21.53;;;;;;;;;;4986893;28;20186;-76
2022/11/13 08:08:10;;;;;;;33.23;20.37;;;;;;;;;;4976543;28;20184;-76
2022/11/13 08:10:36;;;;;;;28.93;18.60;;;;;;;;;;4975814;28;20207;-76
2022/11/13 08:13:07;;;;;;;33.10;19.80;;;;;;;;;;4977624;28;20212;-77
2022/11/13 08:15:33;;;;;;;30.87;20.10;;;;;;;;;;4977273;28;20684;-76
2022/11/13 08:18:00;;;;;;;33.47;19.73;;;;;;;;;;5002548;28;20275;-76
2022/11/13 08:20:27;;;;;;;32.23;18.87;;;;;;;;;;5005212;28;20545;-77
2022/11/13 08:22:56;;;;;;;26.63;18.20;;;;;;;;;;4979197;28;20184;-76
2022/11/13 08:25:22;;;;;;;32.77;19.67;;;;;;;;;;4992117;28;20168;-76
2022/11/13 08:27:48;;;;;;;32.97;19.77;;;;;;;;;;4979630;28;20188;-76
2022/11/13 08:30:15;;;;;;;30.33;18.80;;;;;;;;;;4991681;28;20717;-76
2022/11/13 08:32:41;;;;;;;29.43;18.37;;;;;;;;;;4987922;28;20286;-76
2022/11/13 08:35:07;;;;;;;28.33;17.77;;;;;;;;;;4992340;28;20254;-76
2022/11/13 08:37:33;;;;;;;31.90;17.93;;;;;;;;;;4991727;28;20266;-76
2022/11/13 08:39:59;;;;;;;28.03;16.70;;;;;;;;;;4991512;28;20581;-76
2022/11/13 08:42:25;;;;;;;30.57;17.27;;;;;;;;;;4981692;28;20212;-77
2022/11/13 08:44:51;;;;;;;26.47;16.67;;;;;;;;;;4978601;28;20645;-77
2022/11/13 08:47:17;;;;;;;25.57;16.03;;;;;;;;;;4984987;28;20195;-76
2022/11/13 08:49:43;;;;;;;29.77;16.70;;;;;;;;;;4987427;28;20188;-76
2022/11/13 08:52:09;;;;;;;25.20;15.63;;;;;;;;;;4990223;28;20652;-76
2022/11/13 08:54:35;;;;;;;29.60;16.40;;;;;;;;;;4984887;28;20224;-77
2022/11/13 08:57:01;;;;;;;28.53;16.83;;;;;;;;;;4985918;28;20183;-76
2022/11/13 08:59:27;;;;;;;28.27;18.13;;;;;;;;;;4985784;28;20665;-76
2022/11/13 09:01:58;;;;;;;26.53;17.10;;;;;;;;;;5000830;28;20222;-77
2022/11/13 09:04:24;;;;;;;27.17;16.20;;;;;;;;;;4985832;28;20251;-78
2022/11/13 09:06:51;;;;;;;25.33;17.47;;;;;;;;;;4987402;28;21370;-76
2022/11/13 09:09:17;;;;;;;28.03;16.73;;;;;;;;;;4987839;28;20192;-77
2022/11/13 09:11:43;;;;;;;25.77;16.33;;;;;;;;;;4985092;28;20184;-77
2022/11/13 09:14:09;;;;;;;27.57;17.07;;;;;;;;;;4981032;28;20212;-77
2022/11/13 09:16:35;;;;;;;22.97;15.33;;;;;;;;;;4982566;28;20200;-77
2022/11/13 09:19:01;;;;;;;23.13;15.97;;;;;;;;;;4987013;28;20184;-77
2022/11/13 09:21:27;;;;;;;25.17;15.80;;;;;;;;;;4985887;28;20228;-77
2022/11/13 09:23:53;;;;;;;25.57;16.13;;;;;;;;;;4983721;28;20199;-78
2022/11/13 09:26:19;;;;;;;26.90;17.43;;;;;;;;;;4982120;28;20188;-76
2022/11/13 09:28:45;;;;;;;25.83;16.60;;;;;;;;;;4982252;28;20828;-77
2022/11/13 09:31:11;;;;;;;24.77;16.37;;;;;;;;;;4987256;28;20183;-77
2022/11/13 09:33:37;;;;;;;25.27;16.33;;;;;;;;;;4984040;28;20219;-78
2022/11/13 09:36:09;;;;;;;23.27;16.10;;;;;;;;;;4984501;28;20183;-76
2022/11/13 09:38:35;;;;;;;27.70;17.60;;;;;;;;;;4998831;28;20274;-77
2022/11/13 09:41:05;;;;;;;26.40;17.53;;;;;;;;;;4985564;28;20192;-77
2022/11/13 09:43:31;;;;;;;29.00;17.43;;;;;;;;;;4996922;28;20745;-77
2022/11/13 09:46:02;;;;;;;28.40;18.13;;;;;;;;;;4989050;28;20214;-77
2022/11/13 09:48:28;;;;;;;28.73;17.10;;;;;;;;;;4987927;28;20222;-76
2022/11/13 09:50:55;;;;;;;25.07;16.87;;;;;;;;;;4985846;28;20283;-77
2022/11/13 09:53:21;;;;;;;26.20;17.03;;;;;;;;;;4986241;28;20215;-77
2022/11/13 09:56:14;;;;;;;25.50;15.90;;;;;;;;;;4978190;28;20188;-77
2022/11/13 09:58:49;;;;;;;23.20;15.23;;;;;;;;;;4998988;28;20207;-77
2022/11/13 10:01:20;;;;;;;27.13;16.97;;;;;;;;;;4987395;28;20202;-77
2022/11/13 10:03:51;;;;;;;27.53;17.53;;;;;;;;;;4981504;28;20186;-76
2022/11/13 10:06:24;;;;;;;26.30;16.60;;;;;;;;;;4986499;28;20188;-77
2022/11/13 10:08:56;;;;;;;24.10;16.27;;;;;;;;;;4984994;28;20191;-78
2022/11/13 10:11:25;;;;;;;24.33;16.07;;;;;;;;;;4985948;28;20234;-76
2022/11/13 10:13:53;;;;;;;27.87;16.73;;;;;;;;;;4983192;28;20326;-78
2022/11/13 10:16:34;;;;;;;28.23;16.47;;;;;;;;;;4990126;28;20172;-77
2022/11/13 10:19:06;;;;;;;24.03;16.00;;;;;;;;;;4987949;28;20331;-77
2022/11/13 10:21:37;;;;;;;22.57;14.73;;;;;;;;;;4983986;28;20227;-77
2022/11/13 10:24:04;;;;;;;22.00;14.87;;;;;;;;;;4983733;28;20278;-76
2022/11/13 10:26:31;;;;;;;20.40;14.00;;;;;;;;;;5001236;28;20604;-76
2022/11/13 10:29:02;;;;;;;22.83;15.27;;;;;;;;;;4978679;28;20318;-76
2022/11/13 10:31:28;;;;;;;20.47;14.37;;;;;;;;;;5005579;28;20184;-77
2022/11/13 10:33:54;;;;;;;21.03;15.30;;;;;;;;;;4984566;28;20219;-76
2022/11/13 10:36:24;;;;;;;20.33;14.67;;;;;;;;;;4989164;28;20231;-77
2022/11/13 10:38:53;;;;;;;21.57;14.57;;;;;;;;;;4985947;28;20216;-76
2022/11/13 10:41:20;;;;;;;23.17;15.70;;;;;;;;;;4981823;28;20183;-76
2022/11/13 10:43:49;;;;;;;21.63;14.63;;;;;;;;;;4993468;28;20247;-76
2022/11/13 10:46:18;;;;;;;22.57;14.20;;;;;;;;;;4992908;28;20194;-77
2022/11/13 10:48:44;;;;;;;22.90;14.17;;;;;;;;;;4992733;28;20191;-76
2022/11/13 10:51:17;;;;;;;22.33;14.93;;;;;;;;;;5005679;28;20521;-77
2022/11/13 10:53:43;;;;;;;24.30;15.10;;;;;;;;;;4987930;28;20247;-77
2022/11/13 10:56:23;;;;;;;23.40;15.23;;;;;;;;;;4989464;28;20194;-77
2022/11/13 10:59:08;;;;;;;20.53;14.73;;;;;;;;;;4991948;28;20190;-77
2022/11/13 11:01:34;;;;;;;22.17;14.83;;;;;;;;;;4991093;28;20211;-78
2022/11/13 11:04:03;;;;;;;23.43;15.33;;;;;;;;;;4984471;28;20184;-77
2022/11/13 11:06:36;;;;;;;19.40;14.03;;;;;;;;;;4991699;28;20549;-77
2022/11/13 11:09:14;;;;;;;21.73;15.17;;;;;;;;;;4997953;28;20323;-78
2022/11/13 11:14:30;;;;;;;21.03;14.37;;;;;;;;;;4992490;28;20223;-78
2022/11/13 11:16:58;;;;;;;24.37;15.33;;;;;;;;;;4992503;28;20226;-77
2022/11/13 11:19:26;;;;;;;22.27;15.17;;;;;;;;;;4988893;28;20179;-76
2022/11/13 11:21:54;;;;;;;22.10;14.30;;;;;;;;;;4985533;28;20277;-77
2022/11/13 11:24:24;;;;;;;21.00;14.23;;;;;;;;;;4988219;28;20192;-76
2022/11/13 11:26:52;;;;;;;20.13;14.63;;;;;;;;;;4985621;28;20672;-77
2022/11/13 11:29:24;;;;;;;20.83;15.17;;;;;;;;;;4987513;28;20660;-79
2022/11/13 11:31:54;;;;;;;26.00;15.23;;;;;;;;;;4995345;28;20183;-77
2022/11/13 11:34:23;;;;;;;22.17;15.00;;;;;;;;;;4992991;28;20796;-77
2022/11/13 11:36:58;;;;;;;23.43;15.07;;;;;;;;;;4987961;28;20199;-76
2022/11/13 11:39:27;;;;;;;21.97;15.90;;;;;;;;;;4992662;28;20179;-77
2022/11/13 11:42:00;;;;;;;21.57;14.50;;;;;;;;;;5005171;28;20274;-76
2022/11/13 11:44:42;;;;;;;22.80;14.60;;;;;;;;;;4980063;28;20211;-76
2022/11/13 11:47:14;;;;;;;23.00;15.60;;;;;;;;;;4987978;28;20200;-76
2022/11/13 11:49:41;;;;;;;23.03;15.47;;;;;;;;;;5007997;28;20267;-78
2022/11/13 11:52:19;;;;;;;25.07;15.13;;;;;;;;;;4992541;28;20176;-77
2022/11/13 11:54:54;;;;;;;20.57;14.50;;;;;;;;;;4996632;28;20220;-77
2022/11/13 11:57:19;;;;;;;26.97;16.47;;;;;;;;;;4986549;28;20550;-78
2022/11/13 12:00:05;;;;;;;23.67;16.63;;;;;;;;;;4979911;28;20199;-77
2022/11/13 12:02:43;;;;;;;24.00;16.47;;;;;;;;;;5003189;28;20817;-77
2022/11/13 12:05:09;;;;;;;25.67;16.43;;;;;;;;;;4988797;28;20274;-78
2022/11/13 12:07:50;;;;;;;22.30;17.37;;;;;;;;;;4984174;28;20263;-77
2022/11/13 12:10:28;;;;;;;22.47;15.77;;;;;;;;;;4981918;28;20175;-77
2022/11/13 12:12:57;;;;;;;26.90;16.63;;;;;;;;;;4992058;28;20203;-78
2022/11/13 12:15:23;;;;;;;25.53;17.53;;;;;;;;;;4989849;28;20219;-77
2022/11/13 12:18:08;;;;;;;23.37;16.60;;;;;;;;;;4999451;28;20219;-78
2022/11/13 12:20:34;;;;;;;26.43;17.47;;;;;;;;;;5003139;28;20296;-78
2022/11/13 12:23:19;;;;;;;27.40;18.27;;;;;;;;;;4991173;28;20661;-77
2022/11/13 12:26:01;;;;;;;27.27;18.00;;;;;;;;;;4989353;28;20180;-78
2022/11/13 12:28:28;;;;;;;30.43;19.03;;;;;;;;;;4991523;28;20175;-77
2022/11/13 12:31:03;;;;;;;27.20;19.40;;;;;;;;;;4989692;28;20668;-77
2022/11/13 12:33:29;;;;;;;30.60;18.83;;;;;;;;;;4985019;28;20207;-78
2022/11/13 12:35:55;;;;;;;28.23;18.30;;;;;;;;;;4980379;28;20249;-78
2022/11/13 12:38:33;;;;;;;26.30;18.60;;;;;;;;;;4987510;28;20180;-77
2022/11/13 12:40:59;;;;;;;27.67;18.70;;;;;;;;;;4976289;28;20172;-77
2022/11/13 12:43:41;;;;;;;27.43;19.03;;;;;;;;;;4979275;28;20633;-77
2022/11/13 12:46:11;;;;;;;29.07;18.80;;;;;;;;;;4980710;28;20708;-77
2022/11/13 12:48:40;;;;;;;28.77;18.93;;;;;;;;;;4978880;28;20215;-77
2022/11/13 12:51:10;;;;;;;27.63;17.67;;;;;;;;;;4980547;28;20184;-76
2022/11/13 12:53:50;;;;;;;28.47;20.33;;;;;;;;;;4987555;28;20258;-77
2022/11/13 12:56:26;;;;;;;30.70;20.33;;;;;;;;;;4986188;28;20282;-76
2022/11/13 12:58:58;;;;;;;27.20;19.37;;;;;;;;;;4992262;28;20174;-76
2022/11/13 13:01:26;;;;;;;29.03;20.87;;;;;;;;;;4993160;28;20178;-78
2022/11/13 13:03:58;;;;;;;27.80;19.23;;;;;;;;;;4990862;28;20191;-77
2022/11/13 13:06:43;;;;;;;34.73;19.90;;;;;;;;;;4989121;28;20188;-77
2022/11/13 13:09:24;;;;;;;26.53;19.83;;;;;;;;;;4982090;28;20194;-76
2022/11/13 13:11:59;;;;;;;25.27;18.93;;;;;;;;;;4987646;28;20211;-77
2022/11/13 13:14:37;;;;;;;30.40;19.50;;;;;;;;;;4977080;28;20211;-77
2022/11/13 13:17:16;;;;;;;31.43;21.53;;;;;;;;;;4978516;28;20185;-76
2022/11/13 13:19:42;;;;;;;35.87;24.70;;;;;;;;;;5004205;28;20176;-76
2022/11/13 13:22:23;;;;;;;37.20;25.17;;;;;;;;;;5010274;28;20210;-76
2022/11/13 13:24:57;;;;;;;35.43;23.80;;;;;;;;;;5018180;28;20192;-77
2022/11/13 13:27:28;;;;;;;32.50;22.33;;;;;;;;;;5001988;28;20188;-76
2022/11/13 13:29:54;;;;;;;32.07;21.13;;;;;;;;;;5005505;28;20183;-77
2022/11/13 13:32:20;;;;;;;28.80;20.27;;;;;;;;;;5024835;28;20176;-78
2022/11/13 13:34:49;;;;;;;34.50;20.83;;;;;;;;;;4996747;28;20200;-77
2022/11/13 13:37:15;;;;;;;33.07;21.53;;;;;;;;;;5013837;28;20176;-78
2022/11/13 13:39:41;;;;;;;31.37;20.73;;;;;;;;;;5003705;28;20195;-75
2022/11/13 13:42:15;;;;;;;29.30;19.57;;;;;;;;;;5002006;28;20263;-76
2022/11/13 13:44:47;;;;;;;31.23;21.07;;;;;;;;;;5024887;28;20183;-77
2022/11/13 13:47:31;;;;;;;28.70;19.90;;;;;;;;;;4990180;28;20211;-77
2022/11/13 13:49:57;;;;;;;26.93;20.77;;;;;;;;;;4986152;28;20245;-79
2022/11/13 13:52:29;;;;;;;33.93;20.80;;;;;;;;;;4989573;28;20628;-78
2022/11/13 13:54:56;;;;;;;33.23;20.50;;;;;;;;;;4992741;28;20457;-78
2022/11/13 13:57:22;;;;;;;31.20;20.47;;;;;;;;;;4999843;28;20179;-78
2022/11/13 13:59:49;;;;;;;29.03;19.73;;;;;;;;;;4989639;28;20246;-78
2022/11/13 14:02:16;;;;;;;29.37;20.47;;;;;;;;;;4990586;28;20194;-77
2022/11/13 14:04:44;;;;;;;34.57;21.47;;;;;;;;;;4986208;28;20582;-78
2022/11/13 14:07:23;;;;;;;31.63;21.70;;;;;;;;;;4988719;28;20230;-78
2022/11/13 14:09:49;;;;;;;31.30;22.57;;;;;;;;;;4985316;28;20263;-79
2022/11/13 14:12:22;;;;;;;30.70;21.47;;;;;;;;;;4989644;28;20183;-78
2022/11/13 14:14:48;;;;;;;31.43;20.70;;;;;;;;;;4985066;28;20211;-78
2022/11/13 14:17:21;;;;;;;32.63;22.73;;;;;;;;;;4985348;28;20219;-78
2022/11/13 14:19:54;;;;;;;32.67;21.97;;;;;;;;;;4988250;28;20179;-77
2022/11/13 14:22:21;;;;;;;28.93;20.53;;;;;;;;;;4989844;28;20757;-77